createdAt,value
2023-01-17T00:03:22.266Z,3.95
2023-01-17T00:08:42.492Z,3.96
2023-01-17T00:13:50.500Z,3.93
2023-01-17T00:19:27.350Z,3.89
2023-01-17T00:24:47.758Z,3.92
2023-01-17T00:29:49.370Z,3.94
2023-01-17T00:34:50.983Z,3.96
2023-01-17T00:39:52.631Z,3.88
2023-01-17T00:45:12.823Z,3.80
2023-01-17T00:50:34.397Z,3.74
2023-01-17T00:55:55.698Z,3.68
2023-01-17T01:01:16.545Z,3.69
2023-01-17T01:06:37.116Z,3.66
2023-01-17T01:11:57.413Z,3.49
2023-01-17T01:17:18.015Z,3.24
2023-01-17T01:22:38.461Z,3.01
2023-01-17T01:27:59.625Z,2.83
2023-01-17T01:33:20.584Z,2.65
2023-01-17T01:38:24.880Z,2.45
2023-01-17T01:43:46.260Z,2.30
2023-01-17T01:48:54.318Z,2.17
2023-01-17T01:54:01.718Z,2.08
2023-01-17T01:59:07.333Z,1.99
2023-01-17T02:04:11.586Z,1.90
2023-01-17T02:09:17.300Z,1.89
2023-01-17T02:14:22.413Z,1.86
2023-01-17T02:19:36.082Z,1.79
2023-01-17T02:25:00.470Z,1.80
2023-01-17T02:30:42.499Z,1.91
2023-01-17T02:35:56.842Z,2.03
2023-01-17T02:41:07.806Z,2.00
2023-01-17T02:46:10.053Z,1.95
2023-01-17T02:51:56.962Z,1.84
2023-01-17T02:57:19.768Z,1.69
2023-01-17T03:02:22.270Z,1.55
2023-01-17T03:07:27.204Z,1.39
2023-01-17T03:12:30.973Z,1.26
2023-01-17T03:17:33.067Z,1.18
2023-01-17T03:22:34.896Z,1.12
2023-01-17T03:27:37.950Z,1.07
2023-01-17T03:32:40.477Z,1.02
2023-01-17T03:37:42.254Z,1.03
2023-01-17T03:42:45.364Z,1.07
2023-01-17T03:47:48.127Z,1.16
2023-01-17T03:52:50.040Z,1.21
2023-01-17T03:57:51.960Z,1.24
2023-01-17T04:02:53.841Z,1.23
2023-01-17T04:07:55.833Z,1.23
2023-01-17T04:12:57.741Z,1.21
2023-01-17T04:17:59.741Z,1.18
2023-01-17T04:23:01.483Z,1.09
2023-01-17T04:28:04.417Z,0.98
2023-01-17T04:33:06.273Z,0.81
2023-01-17T04:38:08.198Z,0.70
2023-01-17T04:43:10.130Z,0.62
2023-01-17T04:48:12.805Z,0.61
2023-01-17T04:53:14.741Z,0.58
2023-01-17T04:58:16.437Z,0.46
2023-01-17T05:03:20.388Z,0.34
2023-01-17T05:08:22.142Z,0.27
2023-01-17T05:13:23.882Z,0.32
2023-01-17T05:18:25.852Z,0.40
2023-01-17T05:23:28.753Z,0.45
2023-01-17T05:28:30.480Z,0.46
2023-01-17T05:33:32.910Z,0.50
2023-01-17T05:38:35.923Z,0.58
2023-01-17T05:43:37.647Z,0.67
2023-01-17T05:48:39.466Z,0.73
2023-01-17T05:53:41.242Z,0.72
2023-01-17T05:58:43.001Z,0.76
2023-01-17T06:03:44.728Z,0.84
2023-01-17T06:08:46.634Z,0.90
2023-01-17T06:13:49.232Z,0.95
2023-01-17T06:18:51.382Z,0.96
2023-01-17T06:23:55.272Z,0.95
2023-01-17T06:28:56.998Z,1.00
2023-01-17T06:34:02.212Z,1.12
2023-01-17T06:39:03.891Z,1.26
2023-01-17T06:44:07.489Z,1.30
2023-01-17T06:49:09.182Z,1.31
2023-01-17T06:54:11.292Z,1.33
2023-01-17T06:59:13.052Z,1.39
2023-01-17T07:04:15.223Z,1.49
2023-01-17T07:09:17.250Z,1.59
2023-01-17T07:14:19.038Z,1.64
2023-01-17T07:19:21.270Z,1.68
2023-01-17T07:24:22.895Z,1.60
2023-01-17T07:29:24.667Z,1.83
2023-01-17T07:34:26.888Z,1.88
2023-01-17T07:39:28.552Z,1.93
2023-01-17T07:44:30.255Z,1.95
2023-01-17T07:49:31.912Z,2.08
2023-01-17T07:54:33.708Z,2.19
2023-01-17T07:59:37.058Z,2.31
2023-01-17T08:04:38.793Z,2.40
2023-01-17T08:09:42.696Z,2.49
2023-01-17T08:14:44.902Z,2.60
2023-01-17T08:19:46.634Z,2.76
2023-01-17T08:24:48.612Z,2.92
2023-01-17T08:29:50.805Z,3.03
2023-01-17T08:34:52.478Z,3.11
2023-01-17T08:39:54.145Z,3.14
2023-01-17T08:44:55.819Z,3.22
2023-01-17T08:49:59.594Z,3.34
2023-01-17T08:55:01.998Z,3.47
2023-01-17T09:00:04.179Z,3.57
2023-01-17T09:05:06.440Z,3.66
2023-01-17T09:10:37.685Z,3.72
2023-01-17T09:15:39.631Z,3.90
2023-01-17T09:20:41.241Z,4.07
2023-01-17T09:25:44.579Z,4.24
2023-01-17T09:30:46.665Z,4.38
2023-01-17T09:35:48.398Z,4.49
2023-01-17T09:40:50.567Z,4.57
2023-01-17T09:45:52.638Z,4.65
2023-01-17T09:51:01.857Z,4.68
2023-01-17T09:56:19.530Z,4.67
2023-01-17T10:01:35.907Z,4.67
2023-01-17T10:06:59.766Z,4.65
2023-01-17T10:12:18.838Z,4.64
2023-01-17T10:17:45.451Z,4.70
2023-01-17T10:22:51.284Z,4.72
2023-01-17T10:28:04.370Z,4.80
2023-01-17T10:33:22.903Z,4.83
2023-01-17T10:38:37.674Z,4.90
2023-01-17T10:43:58.252Z,4.99
2023-01-17T10:49:01.284Z,5.02
2023-01-17T10:54:15.513Z,5.03
2023-01-17T10:59:33.912Z,5.03
2023-01-17T11:04:39.993Z,5.09
2023-01-17T11:09:44.335Z,5.16
2023-01-17T11:14:58.822Z,5.23
2023-01-17T11:20:14.997Z,5.31
2023-01-17T11:25:24.678Z,5.36
2023-01-17T11:30:29.585Z,5.36
2023-01-17T11:35:37.293Z,5.35
2023-01-17T11:40:44.284Z,5.36
2023-01-17T11:46:00.908Z,5.39
2023-01-17T11:51:17.995Z,5.41
2023-01-17T11:56:33.313Z,5.44
2023-01-17T12:01:43.729Z,5.47
2023-01-17T12:06:57.704Z,5.49
2023-01-17T12:12:44.409Z,5.46
2023-01-17T12:17:55.750Z,5.23
2023-01-17T12:23:42.954Z,5.49
2023-01-17T12:28:56.868Z,5.59
2023-01-17T12:34:17.268Z,5.64
2023-01-17T12:39:22.604Z,5.65
2023-01-17T12:44:39.122Z,5.62
2023-01-17T12:49:49.324Z,5.60
2023-01-17T12:54:57.950Z,5.59
2023-01-17T13:00:12.276Z,5.53
2023-01-17T13:05:23.710Z,5.52
2023-01-17T13:10:48.046Z,5.50
2023-01-17T13:15:54.405Z,5.48
2023-01-17T13:21:32.512Z,5.49
2023-01-17T13:26:53.198Z,5.52
2023-01-17T13:32:22.286Z,5.54
2023-01-17T13:37:48.579Z,5.54
2023-01-17T13:43:05.885Z,5.50
2023-01-17T13:48:25.837Z,5.43
2023-01-17T13:53:39.552Z,5.37
2023-01-17T13:58:49.902Z,5.31
2023-01-17T14:03:51.870Z,5.27
2023-01-17T14:08:53.774Z,5.23
2023-01-17T14:13:56.088Z,5.24
2023-01-17T14:18:57.939Z,5.25
2023-01-17T14:24:06.341Z,5.21
2023-01-17T14:29:42.657Z,5.11
2023-01-17T14:34:46.994Z,4.97
2023-01-17T14:39:51.082Z,4.87
2023-01-17T14:45:04.379Z,4.80
2023-01-17T14:50:10.282Z,4.68
2023-01-17T14:55:19.917Z,4.50
2023-01-17T15:00:25.180Z,4.25
2023-01-17T15:05:29.614Z,3.97
2023-01-17T15:10:33.661Z,3.71
2023-01-17T15:15:42.041Z,3.46
2023-01-17T15:20:50.763Z,3.21
2023-01-17T15:25:53.756Z,3.03
2023-01-17T15:31:06.059Z,2.91
2023-01-17T15:36:32.596Z,2.80
2023-01-17T15:41:38.148Z,2.60
2023-01-17T15:46:39.830Z,2.37
2023-01-17T15:51:49.939Z,2.15
2023-01-17T15:57:02.254Z,1.93
2023-01-17T16:02:25.518Z,1.66
2023-01-17T16:07:35.641Z,1.42
2023-01-17T16:12:37.351Z,1.29
2023-01-17T16:17:42.267Z,1.30
2023-01-17T16:22:44.085Z,1.30
2023-01-17T16:27:46.955Z,1.28
2023-01-17T16:32:49.541Z,1.26
2023-01-17T16:37:54.056Z,1.18
2023-01-17T16:42:56.986Z,1.09
2023-01-17T16:47:58.865Z,1.05
2023-01-17T16:53:00.733Z,1.07
2023-01-17T16:58:02.548Z,1.08
2023-01-17T17:03:04.205Z,1.13
2023-01-17T17:08:06.225Z,1.16
2023-01-17T17:13:07.963Z,1.17
2023-01-17T17:18:14.941Z,1.16
2023-01-17T17:23:16.682Z,1.19
2023-01-17T17:28:18.324Z,1.23
2023-01-17T17:33:19.999Z,1.30
2023-01-17T17:38:21.813Z,1.39
2023-01-17T17:43:25.315Z,1.44
2023-01-17T17:48:28.283Z,1.45
2023-01-17T17:53:30.078Z,1.46
2023-01-17T17:58:34.166Z,1.44
2023-01-17T18:03:35.893Z,1.40
2023-01-17T18:08:40.015Z,1.33
2023-01-17T18:13:43.028Z,1.35
2023-01-17T18:18:47.613Z,1.42
2023-01-17T18:23:52.860Z,1.52
2023-01-17T18:28:56.582Z,1.63
2023-01-17T18:34:03.574Z,1.69
2023-01-17T18:39:12.407Z,1.68
2023-01-17T18:44:14.572Z,1.61
2023-01-17T18:49:19.109Z,1.52
2023-01-17T18:54:20.993Z,1.41
2023-01-17T18:59:23.456Z,1.28
2023-01-17T19:04:28.018Z,1.18
2023-01-17T19:09:32.078Z,1.16
2023-01-17T19:14:33.779Z,1.21
2023-01-17T19:19:35.413Z,1.24
2023-01-17T19:24:38.446Z,1.26
2023-01-17T19:29:40.128Z,1.23
2023-01-17T19:34:41.974Z,1.27
2023-01-17T19:39:45.120Z,1.31
2023-01-17T19:44:46.806Z,1.33
2023-01-17T19:49:48.475Z,1.32
2023-01-17T19:54:50.895Z,1.25
2023-01-17T19:59:52.673Z,1.20
2023-01-17T20:04:54.655Z,1.19
2023-01-17T20:09:57.838Z,1.19
2023-01-17T20:14:59.481Z,1.20
2023-01-17T20:20:01.063Z,1.26
2023-01-17T20:25:02.919Z,1.34
2023-01-17T20:30:19.337Z,1.38
2023-01-17T20:35:22.136Z,1.38
2023-01-17T20:40:24.044Z,1.18
2023-01-17T20:45:25.902Z,1.33
2023-01-17T20:50:27.884Z,1.26
2023-01-17T20:55:29.809Z,1.24
2023-01-17T21:00:31.571Z,1.31
2023-01-17T21:05:33.193Z,1.44
2023-01-17T21:10:35.329Z,1.50
2023-01-17T21:15:46.617Z,1.44
2023-01-17T21:20:49.269Z,1.36
2023-01-17T21:25:55.786Z,1.33
2023-01-17T21:30:57.812Z,1.39
2023-01-17T21:36:09.197Z,1.51
2023-01-17T21:41:11.006Z,1.63
2023-01-17T21:46:12.849Z,1.72
2023-01-17T21:51:14.829Z,1.79
2023-01-17T21:56:35.732Z,1.82
2023-01-17T22:01:37.560Z,1.90
2023-01-17T22:06:39.473Z,1.98
2023-01-17T22:11:41.451Z,2.06
2023-01-17T22:16:45.961Z,2.14
2023-01-17T22:21:47.674Z,2.19
2023-01-17T22:26:49.373Z,2.18
2023-01-17T22:31:51.024Z,2.17
2023-01-17T22:36:53.484Z,2.25
2023-01-17T22:41:55.136Z,2.40
2023-01-17T22:46:56.778Z,2.44
2023-01-17T22:51:58.419Z,2.37
2023-01-17T22:57:00.138Z,2.32
2023-01-17T23:02:02.013Z,2.31
2023-01-17T23:07:03.685Z,2.34
2023-01-17T23:12:05.561Z,2.43
2023-01-17T23:17:27.413Z,2.48
2023-01-17T23:22:30.289Z,2.47
2023-01-17T23:27:59.706Z,2.46
2023-01-17T23:33:09.267Z,2.41
2023-01-17T23:38:33.982Z,2.40
2023-01-17T23:43:36.995Z,2.43
2023-01-17T23:48:38.727Z,2.46
2023-01-17T23:53:40.791Z,2.46
2023-01-17T23:58:42.435Z,2.46
